AAL200 KBRO-KSAF
Flight info
| Callsign | AAL200 |
|---|---|
| Flight time | 1h 58m |
| Altitude | 38000 |
| Route | CRP MILET JCT SJT YALUT KEBYO ACH RENCO |
| Aircraft | B738/M-SDE2E3FGHIRWXY/LB1 |
Departure
| Time | 2026-05-01 11:09 |
|---|---|
| Airport | Brownsville South Padre Island International Airport (KBRO) |
Arrival
| Time | 2026-05-01 13:07 |
|---|---|
| Airport | Santa Fe Municipal Airport (KSAF) |
| Time | Latitude | Longitude | Altitude | Speed | Heading |
|---|---|---|---|---|---|
| 2026-05-01 11:00 | 25.90641 | -97.43107 | 22 ft | 0 kts | 272° |
| 2026-05-01 11:03 | 25.90641 | -97.43106 | 22 ft | 1 kts | 272° |
| 2026-05-01 11:04 | 25.90638 | -97.43090 | 22 ft | 2 kts | 297° |
| 2026-05-01 11:04 | 25.90630 | -97.43077 | 22 ft | 2 kts | 315° |
| 2026-05-01 11:04 | 25.90618 | -97.43067 | 22 ft | 2 kts | 336° |
| 2026-05-01 11:04 | 25.90604 | -97.43063 | 22 ft | 2 kts | 356° |
| 2026-05-01 11:05 | 25.90597 | -97.43063 | 22 ft | 0 kts | 6° |
| 2026-05-01 11:06 | 25.90606 | -97.43063 | 22 ft | 6 kts | 5° |
| 2026-05-01 11:06 | 25.90689 | -97.43059 | 22 ft | 16 kts | 2° |
| 2026-05-01 11:07 | 25.90995 | -97.43047 | 22 ft | 20 kts | 2° |
| 2026-05-01 11:07 | 25.91099 | -97.43101 | 22 ft | 18 kts | 311° |
| 2026-05-01 11:07 | 25.91194 | -97.43137 | 22 ft | 15 kts | 3° |
| 2026-05-01 11:07 | 25.91240 | -97.43089 | 22 ft | 8 kts | 128° |
| 2026-05-01 11:08 | 25.91231 | -97.43079 | 22 ft | 0 kts | 135° |
| 2026-05-01 11:08 | 25.91211 | -97.43057 | 22 ft | 15 kts | 136° |
| 2026-05-01 11:08 | 25.90069 | -97.41810 | 36 ft | 199 kts | 135° |
| 2026-05-01 11:09 | 25.89065 | -97.40709 | 1037 ft | 208 kts | 130° |
| 2026-05-01 11:09 | 25.88362 | -97.39477 | 2601 ft | 190 kts | 116° |
| 2026-05-01 11:09 | 25.88030 | -97.38055 | 3436 ft | 207 kts | 96° |
| 2026-05-01 11:10 | 25.89225 | -97.34789 | 4757 ft | 265 kts | 48° |
| 2026-05-01 11:10 | 25.90818 | -97.33717 | 5628 ft | 282 kts | 15° |
| 2026-05-01 11:10 | 25.92816 | -97.33548 | 6378 ft | 299 kts | 353° |
| 2026-05-01 11:10 | 25.94886 | -97.33866 | 7340 ft | 306 kts | 349° |
| 2026-05-01 11:11 | 25.97018 | -97.34206 | 8288 ft | 314 kts | 351° |
| 2026-05-01 11:11 | 25.99207 | -97.34444 | 9254 ft | 319 kts | 353° |
| 2026-05-01 11:11 | 26.01440 | -97.34600 | 10164 ft | 326 kts | 354° |
| 2026-05-01 11:11 | 26.03711 | -97.34717 | 10932 ft | 337 kts | 354° |
| 2026-05-01 11:12 | 26.06143 | -97.34830 | 11576 ft | 353 kts | 354° |
| 2026-05-01 11:12 | 26.08619 | -97.34945 | 12218 ft | 366 kts | 354° |
| 2026-05-01 11:12 | 26.11225 | -97.35072 | 12773 ft | 381 kts | 354° |
| 2026-05-01 11:12 | 26.13934 | -97.35208 | 13340 ft | 395 kts | 353° |
| 2026-05-01 11:13 | 26.16686 | -97.35347 | 14165 ft | 399 kts | 353° |
| 2026-05-01 11:13 | 26.19450 | -97.35487 | 15030 ft | 402 kts | 353° |
| 2026-05-01 11:13 | 26.22273 | -97.35630 | 15922 ft | 404 kts | 353° |
| 2026-05-01 11:13 | 26.25071 | -97.35773 | 16787 ft | 407 kts | 353° |
| 2026-05-01 11:14 | 26.27898 | -97.35919 | 17608 ft | 410 kts | 352° |
| 2026-05-01 11:14 | 26.30769 | -97.36068 | 18425 ft | 413 kts | 352° |
| 2026-05-01 11:14 | 26.33632 | -97.36217 | 19170 ft | 416 kts | 352° |
| 2026-05-01 11:14 | 26.36549 | -97.36369 | 19865 ft | 421 kts | 351° |
| 2026-05-01 11:15 | 26.39490 | -97.36523 | 20621 ft | 423 kts | 351° |
| 2026-05-01 11:15 | 26.42429 | -97.36678 | 21242 ft | 428 kts | 351° |
| 2026-05-01 11:15 | 26.45400 | -97.36834 | 21941 ft | 430 kts | 351° |
| 2026-05-01 11:15 | 26.48412 | -97.36992 | 22565 ft | 434 kts | 351° |
| 2026-05-01 11:16 | 26.51436 | -97.37151 | 23218 ft | 437 kts | 350° |
| 2026-05-01 11:16 | 26.54493 | -97.37311 | 23863 ft | 440 kts | 350° |
| 2026-05-01 11:16 | 26.57556 | -97.37472 | 24436 ft | 444 kts | 350° |
| 2026-05-01 11:16 | 26.60677 | -97.37635 | 25100 ft | 446 kts | 350° |
| 2026-05-01 11:17 | 26.63793 | -97.37798 | 25682 ft | 450 kts | 350° |
| 2026-05-01 11:17 | 26.66903 | -97.37961 | 26225 ft | 453 kts | 350° |
| 2026-05-01 11:17 | 26.70060 | -97.38126 | 26796 ft | 456 kts | 349° |
| 2026-05-01 11:17 | 26.73261 | -97.38294 | 27355 ft | 459 kts | 350° |
| 2026-05-01 11:18 | 26.76464 | -97.38460 | 27889 ft | 462 kts | 349° |
| 2026-05-01 11:18 | 26.79646 | -97.38626 | 28455 ft | 463 kts | 349° |
| 2026-05-01 11:18 | 26.82896 | -97.38796 | 28953 ft | 466 kts | 349° |
| 2026-05-01 11:18 | 26.86145 | -97.38966 | 29396 ft | 470 kts | 349° |
| 2026-05-01 11:19 | 26.89383 | -97.39135 | 30054 ft | 467 kts | 349° |
| 2026-05-01 11:19 | 26.92586 | -97.39295 | 30921 ft | 460 kts | 349° |
| 2026-05-01 11:19 | 26.95755 | -97.39453 | 31620 ft | 456 kts | 349° |
| 2026-05-01 11:19 | 26.98928 | -97.39616 | 32152 ft | 456 kts | 349° |
| 2026-05-01 11:20 | 27.02096 | -97.39781 | 32698 ft | 454 kts | 349° |
| 2026-05-01 11:20 | 27.05255 | -97.39945 | 33319 ft | 450 kts | 349° |
| 2026-05-01 11:20 | 27.08360 | -97.40108 | 33893 ft | 449 kts | 348° |
| 2026-05-01 11:20 | 27.11475 | -97.40274 | 34304 ft | 449 kts | 348° |
| 2026-05-01 11:21 | 27.14622 | -97.40442 | 34790 ft | 448 kts | 348° |
| 2026-05-01 11:21 | 27.17723 | -97.40608 | 35223 ft | 448 kts | 348° |
| 2026-05-01 11:21 | 27.20825 | -97.40772 | 35686 ft | 447 kts | 348° |
| 2026-05-01 11:21 | 27.23907 | -97.40935 | 36148 ft | 445 kts | 348° |
| 2026-05-01 11:22 | 27.27004 | -97.41098 | 36489 ft | 445 kts | 348° |
| 2026-05-01 11:22 | 27.30126 | -97.41265 | 36827 ft | 445 kts | 348° |
| 2026-05-01 11:22 | 27.33205 | -97.41431 | 37120 ft | 446 kts | 347° |
| 2026-05-01 11:22 | 27.36324 | -97.41599 | 37435 ft | 446 kts | 348° |
| 2026-05-01 11:23 | 27.39419 | -97.41763 | 37756 ft | 445 kts | 348° |
| 2026-05-01 11:23 | 27.42506 | -97.41926 | 37811 ft | 444 kts | 347° |
| 2026-05-01 11:23 | 27.48691 | -97.42254 | 37826 ft | 446 kts | 347° |
| 2026-05-01 11:24 | 27.54868 | -97.42581 | 37833 ft | 442 kts | 347° |
| 2026-05-01 11:25 | 27.64107 | -97.43072 | 37838 ft | 444 kts | 347° |
| 2026-05-01 11:25 | 27.73366 | -97.43567 | 37838 ft | 442 kts | 347° |
| 2026-05-01 11:26 | 27.82546 | -97.44161 | 37833 ft | 436 kts | 342° |
| 2026-05-01 11:26 | 27.85489 | -97.44806 | 37842 ft | 424 kts | 333° |
| 2026-05-01 11:27 | 27.88187 | -97.45986 | 37845 ft | 411 kts | 323° |
| 2026-05-01 11:27 | 27.92832 | -97.49539 | 37848 ft | 395 kts | 311° |
| 2026-05-01 11:28 | 27.96487 | -97.54009 | 37845 ft | 386 kts | 300° |
| 2026-05-01 11:28 | 27.99544 | -97.58945 | 37847 ft | 381 kts | 298° |
| 2026-05-01 11:29 | 28.04020 | -97.66396 | 37851 ft | 383 kts | 298° |
| 2026-05-01 11:30 | 28.08548 | -97.73798 | 37843 ft | 381 kts | 298° |
| 2026-05-01 11:30 | 28.11578 | -97.78721 | 37852 ft | 383 kts | 298° |
| 2026-05-01 11:31 | 28.14619 | -97.83669 | 37848 ft | 383 kts | 298° |
| 2026-05-01 11:31 | 28.17669 | -97.88630 | 37853 ft | 384 kts | 298° |
| 2026-05-01 11:32 | 28.20713 | -97.93587 | 37856 ft | 386 kts | 298° |
| 2026-05-01 11:32 | 28.23775 | -97.98574 | 37857 ft | 383 kts | 298° |
| 2026-05-01 11:33 | 28.26812 | -98.03531 | 37858 ft | 385 kts | 297° |
| 2026-05-01 11:33 | 28.29850 | -98.08497 | 37855 ft | 384 kts | 297° |
| 2026-05-01 11:34 | 28.32899 | -98.13484 | 37859 ft | 384 kts | 298° |
| 2026-05-01 11:34 | 28.35943 | -98.18474 | 37863 ft | 387 kts | 298° |
| 2026-05-01 11:35 | 28.39003 | -98.23486 | 37867 ft | 388 kts | 298° |
| 2026-05-01 11:35 | 28.42087 | -98.28554 | 37871 ft | 395 kts | 298° |
| 2026-05-01 11:36 | 28.45228 | -98.33728 | 37871 ft | 401 kts | 298° |
| 2026-05-01 11:36 | 28.48403 | -98.38959 | 37873 ft | 407 kts | 298° |
| 2026-05-01 11:37 | 28.51621 | -98.44253 | 37878 ft | 406 kts | 298° |
| 2026-05-01 11:37 | 28.54819 | -98.49520 | 37876 ft | 406 kts | 298° |
| 2026-05-01 11:38 | 28.58027 | -98.54819 | 37880 ft | 408 kts | 298° |
| 2026-05-01 11:38 | 28.61222 | -98.60101 | 37882 ft | 408 kts | 298° |
| 2026-05-01 11:39 | 28.64442 | -98.65429 | 37892 ft | 409 kts | 297° |
| 2026-05-01 11:39 | 28.67671 | -98.70784 | 37895 ft | 411 kts | 298° |
| 2026-05-01 11:40 | 28.70970 | -98.76134 | 37891 ft | 414 kts | 301° |
| 2026-05-01 11:40 | 28.75151 | -98.80711 | 37893 ft | 432 kts | 319° |
| 2026-05-01 11:41 | 28.80516 | -98.84049 | 37904 ft | 442 kts | 326° |
| 2026-05-01 11:41 | 28.86109 | -98.86999 | 37896 ft | 444 kts | 327° |
| 2026-05-01 11:42 | 28.91757 | -98.89928 | 37906 ft | 446 kts | 327° |
| 2026-05-01 11:42 | 28.97370 | -98.92872 | 37913 ft | 449 kts | 327° |
| 2026-05-01 11:43 | 29.03032 | -98.95876 | 37914 ft | 445 kts | 326° |
| 2026-05-01 11:43 | 29.08577 | -98.98839 | 37914 ft | 441 kts | 326° |
| 2026-05-01 11:44 | 29.16901 | -99.03323 | 37905 ft | 442 kts | 326° |
| 2026-05-01 11:44 | 29.22468 | -99.06330 | 37913 ft | 439 kts | 326° |
| 2026-05-01 11:45 | 29.28004 | -99.09325 | 37923 ft | 442 kts | 325° |
| 2026-05-01 11:45 | 29.33545 | -99.12324 | 37930 ft | 442 kts | 325° |
| 2026-05-01 11:46 | 29.39091 | -99.15334 | 37933 ft | 439 kts | 325° |
| 2026-05-01 11:46 | 29.44635 | -99.18341 | 37936 ft | 440 kts | 325° |
| 2026-05-01 11:47 | 29.50152 | -99.21341 | 37930 ft | 441 kts | 324° |
| 2026-05-01 11:47 | 29.55684 | -99.24352 | 37934 ft | 437 kts | 324° |
| 2026-05-01 11:48 | 29.61157 | -99.27332 | 37944 ft | 438 kts | 324° |
| 2026-05-01 11:48 | 29.66697 | -99.30361 | 37939 ft | 440 kts | 323° |
| 2026-05-01 11:49 | 29.72255 | -99.33398 | 37941 ft | 438 kts | 323° |
| 2026-05-01 11:49 | 29.77768 | -99.36405 | 37947 ft | 437 kts | 323° |
| 2026-05-01 11:50 | 29.83262 | -99.39413 | 37954 ft | 439 kts | 323° |
| 2026-05-01 11:50 | 29.88778 | -99.42442 | 37952 ft | 440 kts | 323° |
| 2026-05-01 11:51 | 29.94328 | -99.45496 | 37955 ft | 445 kts | 323° |
| 2026-05-01 11:51 | 29.99891 | -99.48543 | 37954 ft | 440 kts | 323° |
| 2026-05-01 11:52 | 30.05408 | -99.51576 | 37956 ft | 441 kts | 323° |
| 2026-05-01 11:52 | 30.10982 | -99.54654 | 37957 ft | 445 kts | 323° |
| 2026-05-01 11:53 | 30.16531 | -99.57713 | 37961 ft | 443 kts | 323° |
| 2026-05-01 11:53 | 30.22098 | -99.60785 | 37963 ft | 443 kts | 323° |
| 2026-05-01 11:54 | 30.27658 | -99.63858 | 37964 ft | 445 kts | 323° |
| 2026-05-01 11:54 | 30.33257 | -99.66959 | 37969 ft | 447 kts | 322° |
| 2026-05-01 11:55 | 30.38868 | -99.70070 | 37975 ft | 446 kts | 323° |
| 2026-05-01 11:55 | 30.44422 | -99.73145 | 37981 ft | 445 kts | 323° |
| 2026-05-01 11:56 | 30.49987 | -99.76238 | 37984 ft | 443 kts | 322° |
| 2026-05-01 11:56 | 30.55567 | -99.79346 | 37988 ft | 443 kts | 322° |
| 2026-05-01 11:57 | 30.61006 | -99.82684 | 37983 ft | 439 kts | 317° |
| 2026-05-01 11:57 | 30.66047 | -99.86571 | 37994 ft | 431 kts | 314° |
| 2026-05-01 11:58 | 30.70926 | -99.90601 | 37992 ft | 427 kts | 313° |
| 2026-05-01 11:59 | 30.78203 | -99.96637 | 37991 ft | 431 kts | 313° |
| 2026-05-01 11:59 | 30.83104 | -100.00668 | 37997 ft | 430 kts | 314° |
| 2026-05-01 12:00 | 30.90453 | -100.06692 | 37997 ft | 433 kts | 314° |
| 2026-05-01 12:01 | 30.97823 | -100.12736 | 38002 ft | 432 kts | 314° |
| 2026-05-01 12:01 | 31.02686 | -100.16715 | 38000 ft | 428 kts | 314° |
| 2026-05-01 12:02 | 31.07589 | -100.20752 | 37996 ft | 432 kts | 314° |
| 2026-05-01 12:02 | 31.12458 | -100.24752 | 37994 ft | 428 kts | 314° |
| 2026-05-01 12:03 | 31.17335 | -100.28772 | 38006 ft | 430 kts | 314° |
| 2026-05-01 12:03 | 31.22210 | -100.32797 | 38014 ft | 432 kts | 313° |
| 2026-05-01 12:04 | 31.27117 | -100.36846 | 38017 ft | 429 kts | 313° |
| 2026-05-01 12:04 | 31.31958 | -100.40848 | 38011 ft | 431 kts | 313° |
| 2026-05-01 12:05 | 31.36836 | -100.44886 | 38010 ft | 428 kts | 313° |
| 2026-05-01 12:05 | 31.43878 | -100.51266 | 38015 ft | 424 kts | 309° |
| 2026-05-01 12:06 | 31.48370 | -100.55634 | 38018 ft | 424 kts | 309° |
| 2026-05-01 12:06 | 31.52906 | -100.60028 | 38009 ft | 425 kts | 309° |
| 2026-05-01 12:07 | 31.57474 | -100.64418 | 38003 ft | 423 kts | 309° |
| 2026-05-01 12:07 | 31.62051 | -100.68794 | 38002 ft | 424 kts | 309° |
| 2026-05-01 12:08 | 31.66622 | -100.73170 | 38004 ft | 425 kts | 309° |
| 2026-05-01 12:08 | 31.71189 | -100.77537 | 37999 ft | 423 kts | 309° |
| 2026-05-01 12:09 | 31.75774 | -100.81934 | 38005 ft | 427 kts | 309° |
| 2026-05-01 12:09 | 31.80323 | -100.86292 | 38000 ft | 422 kts | 309° |
| 2026-05-01 12:10 | 31.87197 | -100.92907 | 38005 ft | 428 kts | 309° |
| 2026-05-01 12:11 | 31.94070 | -100.99515 | 37998 ft | 425 kts | 309° |
| 2026-05-01 12:11 | 31.98648 | -101.03931 | 38002 ft | 428 kts | 309° |
| 2026-05-01 12:12 | 32.03254 | -101.08381 | 38007 ft | 429 kts | 309° |
| 2026-05-01 12:12 | 32.07863 | -101.12838 | 38007 ft | 429 kts | 309° |
| 2026-05-01 12:13 | 32.12471 | -101.17294 | 38005 ft | 429 kts | 309° |
| 2026-05-01 12:13 | 32.17049 | -101.21730 | 38016 ft | 428 kts | 309° |
| 2026-05-01 12:14 | 32.21634 | -101.26183 | 38015 ft | 428 kts | 309° |
| 2026-05-01 12:14 | 32.26237 | -101.30662 | 38024 ft | 431 kts | 309° |
| 2026-05-01 12:15 | 32.30878 | -101.35181 | 38025 ft | 429 kts | 309° |
| 2026-05-01 12:15 | 32.35447 | -101.39628 | 38025 ft | 429 kts | 309° |
| 2026-05-01 12:16 | 32.40065 | -101.44141 | 38022 ft | 430 kts | 309° |
| 2026-05-01 12:16 | 32.44695 | -101.48668 | 38023 ft | 431 kts | 309° |
| 2026-05-01 12:17 | 32.49312 | -101.53159 | 38020 ft | 433 kts | 310° |
| 2026-05-01 12:17 | 32.54001 | -101.57594 | 38021 ft | 435 kts | 310° |
| 2026-05-01 12:18 | 32.58761 | -101.62060 | 38026 ft | 430 kts | 310° |
| 2026-05-01 12:18 | 32.63452 | -101.66475 | 38021 ft | 433 kts | 310° |
| 2026-05-01 12:19 | 32.68184 | -101.70949 | 38023 ft | 433 kts | 310° |
| 2026-05-01 12:19 | 32.72884 | -101.75409 | 38036 ft | 433 kts | 310° |
| 2026-05-01 12:20 | 32.77584 | -101.79869 | 38034 ft | 435 kts | 310° |
| 2026-05-01 12:20 | 32.82290 | -101.84346 | 38041 ft | 432 kts | 310° |
| 2026-05-01 12:21 | 32.86984 | -101.88816 | 38034 ft | 432 kts | 310° |
| 2026-05-01 12:21 | 32.91646 | -101.93268 | 38031 ft | 434 kts | 310° |
| 2026-05-01 12:22 | 32.96360 | -101.97772 | 38022 ft | 432 kts | 310° |
| 2026-05-01 12:22 | 33.01046 | -102.02250 | 38016 ft | 433 kts | 310° |
| 2026-05-01 12:23 | 33.05768 | -102.06784 | 38028 ft | 433 kts | 310° |
| 2026-05-01 12:23 | 33.10449 | -102.11270 | 38027 ft | 436 kts | 310° |
| 2026-05-01 12:24 | 33.15172 | -102.15810 | 38025 ft | 434 kts | 311° |
| 2026-05-01 12:24 | 33.19871 | -102.20328 | 38024 ft | 435 kts | 311° |
| 2026-05-01 12:25 | 33.26918 | -102.27116 | 38035 ft | 434 kts | 311° |
| 2026-05-01 12:26 | 33.31603 | -102.31644 | 38035 ft | 438 kts | 311° |
| 2026-05-01 12:26 | 33.38692 | -102.38498 | 38047 ft | 436 kts | 312° |
| 2026-05-01 12:27 | 33.45726 | -102.45312 | 38078 ft | 434 kts | 312° |
| 2026-05-01 12:28 | 33.52753 | -102.52142 | 38048 ft | 435 kts | 313° |
| 2026-05-01 12:29 | 33.59791 | -102.58993 | 38050 ft | 435 kts | 313° |
| 2026-05-01 12:29 | 33.66839 | -102.65865 | 38052 ft | 435 kts | 312° |
| 2026-05-01 12:30 | 33.73840 | -102.72712 | 38058 ft | 435 kts | 313° |
| 2026-05-01 12:31 | 33.78530 | -102.77306 | 38056 ft | 434 kts | 313° |
| 2026-05-01 12:31 | 33.83206 | -102.81889 | 38055 ft | 433 kts | 313° |
| 2026-05-01 12:32 | 33.87875 | -102.86480 | 38050 ft | 436 kts | 313° |
| 2026-05-01 12:32 | 33.94902 | -102.93398 | 38055 ft | 435 kts | 313° |
| 2026-05-01 12:33 | 33.99603 | -102.98031 | 38049 ft | 438 kts | 313° |
| 2026-05-01 12:33 | 34.04288 | -103.02658 | 38064 ft | 437 kts | 314° |
| 2026-05-01 12:34 | 34.08966 | -103.07282 | 38089 ft | 436 kts | 314° |
| 2026-05-01 12:34 | 34.13611 | -103.11970 | 38084 ft | 433 kts | 311° |
| 2026-05-01 12:35 | 34.17633 | -103.17220 | 38069 ft | 424 kts | 301° |
| 2026-05-01 12:35 | 34.20924 | -103.23061 | 38092 ft | 422 kts | 297° |
| 2026-05-01 12:36 | 34.23990 | -103.29087 | 38079 ft | 418 kts | 297° |
| 2026-05-01 12:36 | 34.27019 | -103.35101 | 38074 ft | 420 kts | 296° |
| 2026-05-01 12:37 | 34.30039 | -103.41074 | 38079 ft | 419 kts | 297° |
| 2026-05-01 12:37 | 34.33105 | -103.47120 | 38091 ft | 421 kts | 297° |
| 2026-05-01 12:38 | 34.36138 | -103.53088 | 38087 ft | 420 kts | 298° |
| 2026-05-01 12:38 | 34.39197 | -103.59115 | 38087 ft | 421 kts | 298° |
| 2026-05-01 12:39 | 34.42233 | -103.65104 | 38074 ft | 420 kts | 297° |
| 2026-05-01 12:39 | 34.45269 | -103.71100 | 38094 ft | 419 kts | 297° |
| 2026-05-01 12:40 | 34.48326 | -103.77152 | 38093 ft | 420 kts | 297° |
| 2026-05-01 12:40 | 34.51356 | -103.83160 | 38088 ft | 420 kts | 298° |
| 2026-05-01 12:41 | 34.54391 | -103.89189 | 38085 ft | 419 kts | 298° |
| 2026-05-01 12:41 | 34.57415 | -103.95208 | 38103 ft | 422 kts | 298° |
| 2026-05-01 12:42 | 34.60450 | -104.01260 | 38090 ft | 420 kts | 298° |
| 2026-05-01 12:42 | 34.63476 | -104.07302 | 38088 ft | 423 kts | 298° |
| 2026-05-01 12:43 | 34.66528 | -104.13407 | 38098 ft | 421 kts | 298° |
| 2026-05-01 12:43 | 34.69565 | -104.19491 | 38101 ft | 423 kts | 298° |
| 2026-05-01 12:44 | 34.72599 | -104.25580 | 38097 ft | 422 kts | 298° |
| 2026-05-01 12:45 | 34.78650 | -104.37756 | 38111 ft | 423 kts | 298° |
| 2026-05-01 12:45 | 34.81668 | -104.43842 | 38108 ft | 422 kts | 298° |
| 2026-05-01 12:46 | 34.84693 | -104.49954 | 38108 ft | 421 kts | 298° |
| 2026-05-01 12:46 | 34.87692 | -104.56024 | 38106 ft | 421 kts | 298° |
| 2026-05-01 12:47 | 34.90717 | -104.62157 | 38098 ft | 421 kts | 298° |
| 2026-05-01 12:47 | 34.93672 | -104.68155 | 37602 ft | 405 kts | 298° |
| 2026-05-01 12:48 | 34.95093 | -104.71042 | 37099 ft | 398 kts | 298° |
| 2026-05-01 12:48 | 34.96492 | -104.73889 | 36518 ft | 393 kts | 298° |
| 2026-05-01 12:48 | 34.97892 | -104.76742 | 35955 ft | 389 kts | 298° |
| 2026-05-01 12:48 | 34.99261 | -104.79537 | 35386 ft | 389 kts | 298° |
| 2026-05-01 12:49 | 35.00645 | -104.82368 | 34688 ft | 390 kts | 298° |
| 2026-05-01 12:49 | 35.02029 | -104.85198 | 33609 ft | 400 kts | 297° |
| 2026-05-01 12:49 | 35.03455 | -104.88120 | 32597 ft | 402 kts | 297° |
| 2026-05-01 12:49 | 35.04887 | -104.91047 | 31872 ft | 398 kts | 297° |
| 2026-05-01 12:50 | 35.06294 | -104.93921 | 31312 ft | 391 kts | 296° |
| 2026-05-01 12:50 | 35.07688 | -104.96774 | 30891 ft | 403 kts | 296° |
| 2026-05-01 12:50 | 35.09132 | -104.99742 | 30351 ft | 411 kts | 296° |
| 2026-05-01 12:50 | 35.10587 | -105.02728 | 29798 ft | 406 kts | 296° |
| 2026-05-01 12:51 | 35.11980 | -105.05628 | 29273 ft | 396 kts | 294° |
| 2026-05-01 12:51 | 35.13276 | -105.08530 | 28746 ft | 387 kts | 293° |
| 2026-05-01 12:51 | 35.15676 | -105.14248 | 27712 ft | 373 kts | 292° |
| 2026-05-01 12:52 | 35.16859 | -105.17129 | 27210 ft | 391 kts | 292° |
| 2026-05-01 12:52 | 35.19306 | -105.23041 | 26101 ft | 386 kts | 292° |
| 2026-05-01 12:52 | 35.20526 | -105.25946 | 25561 ft | 379 kts | 292° |
| 2026-05-01 12:53 | 35.22884 | -105.31538 | 24509 ft | 364 kts | 292° |
| 2026-05-01 12:53 | 35.24029 | -105.34256 | 24004 ft | 358 kts | 292° |
| 2026-05-01 12:53 | 35.25176 | -105.36991 | 23503 ft | 371 kts | 293° |
| 2026-05-01 12:54 | 35.26347 | -105.39800 | 22969 ft | 376 kts | 293° |
| 2026-05-01 12:54 | 35.28694 | -105.45392 | 21868 ft | 365 kts | 294° |
| 2026-05-01 12:54 | 35.29835 | -105.48108 | 21340 ft | 359 kts | 294° |
| 2026-05-01 12:55 | 35.32071 | -105.53437 | 20299 ft | 346 kts | 295° |
| 2026-05-01 12:55 | 35.33156 | -105.56030 | 19782 ft | 341 kts | 295° |
| 2026-05-01 12:55 | 35.34231 | -105.58604 | 19269 ft | 335 kts | 295° |
| 2026-05-01 12:56 | 35.35276 | -105.61108 | 18766 ft | 334 kts | 295° |
| 2026-05-01 12:56 | 35.36365 | -105.63721 | 18229 ft | 350 kts | 296° |
| 2026-05-01 12:56 | 35.37448 | -105.66321 | 17684 ft | 347 kts | 295° |
| 2026-05-01 12:56 | 35.38541 | -105.68938 | 17155 ft | 340 kts | 295° |
| 2026-05-01 12:57 | 35.39609 | -105.71497 | 16632 ft | 334 kts | 296° |
| 2026-05-01 12:57 | 35.41641 | -105.76463 | 15562 ft | 325 kts | 294° |
| 2026-05-01 12:57 | 35.42473 | -105.79044 | 15026 ft | 320 kts | 288° |
| 2026-05-01 12:58 | 35.43064 | -105.81634 | 14443 ft | 319 kts | 283° |
| 2026-05-01 12:58 | 35.43518 | -105.84259 | 13909 ft | 316 kts | 282° |
| 2026-05-01 12:58 | 35.43924 | -105.86939 | 13401 ft | 331 kts | 281° |
| 2026-05-01 12:59 | 35.44759 | -105.92519 | 12272 ft | 335 kts | 281° |
| 2026-05-01 12:59 | 35.45188 | -105.95303 | 11723 ft | 330 kts | 281° |
| 2026-05-01 12:59 | 35.46044 | -106.00753 | 10645 ft | 323 kts | 281° |
| 2026-05-01 13:00 | 35.46861 | -106.05949 | 10282 ft | 294 kts | 281° |
| 2026-05-01 13:00 | 35.47234 | -106.08320 | 10173 ft | 277 kts | 281° |
| 2026-05-01 13:01 | 35.47915 | -106.12701 | 9778 ft | 247 kts | 281° |
| 2026-05-01 13:01 | 35.48303 | -106.14670 | 9443 ft | 225 kts | 290° |
| 2026-05-01 13:01 | 35.50185 | -106.16902 | 8994 ft | 176 kts | 349° |
| 2026-05-01 13:02 | 35.51387 | -106.17072 | 8611 ft | 173 kts | 3° |
| 2026-05-01 13:07 | 35.61900 | -106.08521 | 6320 ft | 12 kts | 162° |
| 2026-05-01 13:07 | 35.61875 | -106.08492 | 6319 ft | 0 kts | 128° |